createdAt,value
2018-02-09T00:02:27.520Z,28.37
2018-02-09T00:04:55.746Z,23.80
2018-02-09T00:07:24.001Z,24.10
2018-02-09T00:09:52.213Z,25.27
2018-02-09T00:12:21.307Z,24.90
2018-02-09T00:14:49.508Z,24.17
2018-02-09T05:31:04.298Z,23.37
2018-02-09T05:33:32.516Z,25.53
2018-02-09T05:36:01.524Z,23.07
2018-02-09T05:38:29.808Z,23.63
2018-02-09T05:40:58.025Z,24.97
2018-02-09T05:43:26.292Z,24.87
2018-02-09T05:45:54.513Z,21.57
2018-02-09T05:48:23.500Z,24.43
2018-02-09T05:50:51.813Z,23.67
2018-02-09T05:53:20.085Z,26.87
2018-02-09T05:55:48.336Z,22.77
2018-02-09T05:58:17.353Z,24.83
2018-02-09T06:00:45.611Z,22.43
2018-02-09T06:03:13.912Z,25.20
2018-02-09T06:05:42.164Z,26.30
2018-02-09T06:08:11.150Z,24.40
2018-02-09T06:10:39.477Z,24.20
2018-02-09T06:13:07.754Z,25.77
2018-02-09T06:15:35.981Z,23.53
2018-02-09T06:18:05.824Z,25.37
2018-02-09T06:20:34.040Z,25.20
2018-02-09T06:23:02.293Z,23.10
2018-02-09T06:25:30.624Z,22.60
2018-02-09T06:27:58.817Z,22.30
2018-02-09T06:30:27.837Z,23.20
2018-02-09T06:32:56.378Z,23.73
2018-02-09T06:35:24.856Z,22.17
2018-02-09T06:37:53.170Z,25.83
2018-02-09T06:40:21.384Z,23.83
2018-02-09T06:42:49.645Z,24.20
2018-02-09T06:45:18.792Z,29.77
2018-02-09T06:47:48.804Z,24.43
2018-02-09T06:50:17.113Z,24.03
2018-02-09T06:52:45.356Z,21.53
2018-02-09T06:55:13.573Z,23.60
2018-02-09T06:57:47.612Z,20.87
2018-02-09T07:00:16.148Z,22.60
2018-02-09T07:02:44.381Z,24.67
2018-02-09T07:05:12.597Z,23.53
2018-02-09T07:07:41.704Z,23.40
2018-02-09T07:10:09.953Z,21.87
2018-02-09T07:12:41.757Z,21.03
2018-02-09T07:15:22.499Z,23.47
2018-02-09T07:17:50.688Z,21.37
2018-02-09T07:20:18.941Z,21.20
2018-02-09T07:22:47.957Z,20.93
2018-02-09T07:25:16.164Z,21.83
2018-02-09T07:27:44.435Z,18.90
2018-02-09T07:39:43.029Z,22.67
2018-02-09T07:42:11.284Z,20.80
2018-02-09T07:44:40.292Z,21.43
2018-02-09T07:47:08.536Z,20.67
2018-02-09T07:49:36.788Z,21.83
2018-02-09T07:52:05.016Z,21.63
2018-02-09T07:54:33.366Z,18.80
2018-02-09T07:57:01.586Z,20.07
2018-02-09T07:59:29.844Z,17.87
2018-02-09T08:01:58.093Z,20.77
2018-02-09T08:04:26.315Z,21.47
2018-02-09T08:06:54.582Z,20.60
2018-02-09T08:09:22.801Z,19.53
2018-02-09T08:11:51.049Z,20.67
2018-02-09T08:14:19.297Z,20.83
2018-02-09T08:16:48.366Z,18.83
2018-02-09T08:19:16.816Z,21.50
2018-02-09T08:21:45.028Z,19.20
2018-02-09T08:24:13.340Z,20.17
2018-02-09T08:26:41.560Z,18.60
2018-02-09T08:29:09.889Z,17.70
2018-02-09T08:31:38.104Z,19.67
2018-02-09T08:34:06.351Z,20.33
2018-02-09T08:36:34.553Z,19.80
2018-02-09T08:39:03.704Z,18.67
2018-02-09T08:41:32.813Z,18.47
2018-02-09T08:44:01.052Z,20.17
2018-02-09T08:46:29.864Z,17.80
2018-02-09T08:48:58.968Z,19.40
2018-02-09T08:51:27.244Z,19.13
2018-02-09T08:53:55.485Z,17.90
2018-02-09T08:56:23.702Z,18.80
2018-02-09T08:58:51.949Z,19.00
2018-02-09T09:01:20.220Z,18.50
2018-02-09T09:03:48.432Z,17.00
2018-02-09T09:06:16.679Z,17.07
2018-02-09T09:08:45.205Z,17.77
2018-02-09T09:11:13.469Z,15.37
2018-02-09T09:13:41.737Z,16.83
2018-02-09T09:16:10.393Z,18.87
2018-02-09T09:18:38.596Z,16.47
2018-02-09T09:21:07.132Z,16.80
2018-02-09T09:23:35.465Z,16.63
2018-02-09T09:26:03.672Z,17.47
2018-02-09T09:28:31.913Z,15.20
2018-02-09T09:31:00.193Z,19.40
2018-02-09T09:33:28.437Z,18.83
2018-02-09T09:35:56.743Z,15.93
2018-02-09T09:38:25.809Z,17.07
2018-02-09T09:40:54.044Z,17.43
2018-02-09T09:43:22.364Z,18.13
2018-02-09T09:45:50.605Z,17.47
2018-02-09T09:48:19.472Z,18.40
2018-02-09T09:50:47.752Z,15.03
2018-02-09T09:53:15.997Z,16.20
2018-02-09T09:55:44.982Z,17.40
2018-02-09T09:58:13.212Z,16.83
2018-02-09T10:00:41.422Z,15.23
2018-02-09T10:03:09.656Z,16.80
2018-02-09T10:05:37.982Z,16.37
2018-02-09T10:08:06.288Z,19.30
2018-02-09T10:10:34.528Z,16.20
2018-02-09T10:13:02.768Z,17.97
2018-02-09T10:15:31.009Z,15.13
2018-02-09T10:18:00.039Z,17.90
2018-02-09T10:20:28.242Z,16.30
2018-02-09T10:22:56.476Z,17.33
2018-02-09T10:25:24.736Z,15.87
2018-02-09T10:27:52.985Z,15.37
2018-02-09T10:30:21.208Z,16.30
2018-02-09T10:32:49.420Z,16.90
2018-02-09T10:35:17.744Z,16.20
2018-02-09T10:37:45.956Z,15.60
2018-02-09T10:40:14.192Z,17.53
2018-02-09T10:42:42.433Z,15.90
2018-02-09T10:45:10.740Z,17.10
2018-02-09T10:47:39.916Z,18.57
2018-02-09T10:50:08.111Z,15.90
2018-02-09T10:52:37.101Z,17.90
2018-02-09T10:55:05.392Z,15.70
2018-02-09T10:57:33.740Z,17.33
2018-02-09T11:00:01.932Z,15.40
2018-02-09T11:02:30.936Z,16.50
2018-02-09T11:04:59.173Z,17.90
2018-02-09T11:07:27.404Z,18.27
2018-02-09T11:09:55.674Z,16.23
2018-02-09T11:12:23.916Z,16.10
2018-02-09T11:14:52.125Z,17.00
2018-02-09T11:17:20.338Z,17.97
2018-02-09T11:19:48.572Z,18.10
2018-02-09T11:22:16.849Z,17.60
2018-02-09T11:24:45.129Z,17.30
2018-02-09T11:27:13.473Z,17.30
2018-02-09T11:29:41.673Z,15.57
2018-02-09T11:32:10.670Z,16.43
2018-02-09T11:34:39.645Z,18.13
2018-02-09T11:37:07.880Z,15.97
2018-02-09T11:39:36.116Z,16.60
2018-02-09T11:42:04.394Z,16.73
2018-02-09T11:44:33.088Z,17.43
2018-02-09T11:47:02.113Z,16.40
2018-02-09T11:49:30.335Z,17.40
2018-02-09T11:51:58.555Z,19.57
2018-02-09T11:54:27.605Z,17.47
2018-02-09T11:56:56.626Z,18.70
2018-02-09T11:59:24.897Z,14.57
2018-02-09T12:01:53.136Z,16.30
2018-02-09T12:04:21.454Z,14.77
2018-02-09T12:06:49.729Z,15.03
2018-02-09T12:09:17.973Z,15.97
2018-02-09T12:11:47.157Z,16.50
2018-02-09T12:14:15.341Z,14.43
2018-02-09T12:16:43.660Z,16.57
2018-02-09T12:19:11.916Z,15.57
2018-02-09T12:21:40.892Z,16.07
2018-02-09T12:24:10.633Z,15.07
2018-02-09T12:26:38.845Z,16.83
2018-02-09T12:29:07.157Z,15.57
2018-02-09T12:31:35.463Z,15.13
2018-02-09T12:34:03.737Z,17.27
2018-02-09T12:36:32.088Z,15.23
2018-02-09T12:39:00.292Z,15.90
2018-02-09T12:41:28.538Z,14.90
2018-02-09T12:43:58.352Z,14.17
2018-02-09T12:46:26.571Z,14.57
2018-02-09T12:48:54.781Z,14.90
2018-02-09T12:51:23.017Z,15.10
2018-02-09T12:53:51.251Z,13.07
2018-02-09T12:56:20.973Z,14.60
2018-02-09T12:58:49.220Z,14.40
2018-02-09T13:01:17.469Z,15.07
2018-02-09T13:03:45.680Z,13.97
2018-02-09T13:06:13.897Z,14.83
2018-02-09T13:08:42.896Z,15.80
2018-02-09T13:11:11.956Z,14.63
2018-02-09T13:13:40.264Z,14.77
2018-02-09T13:16:08.615Z,15.43
2018-02-09T13:18:48.593Z,14.93
2018-02-09T13:21:16.869Z,15.30
2018-02-09T13:23:57.024Z,17.57
2018-02-09T13:26:25.269Z,14.00
2018-02-09T13:28:59.702Z,14.23
2018-02-09T13:31:28.413Z,15.30
2018-02-09T13:33:56.697Z,15.43
2018-02-09T13:36:36.845Z,15.97
2018-02-09T13:39:05.124Z,15.30
2018-02-09T13:41:33.332Z,13.47
2018-02-09T13:44:01.568Z,15.10
2018-02-09T13:46:30.670Z,15.10
2018-02-09T13:48:58.877Z,14.03
2018-02-09T13:51:27.116Z,14.50
2018-02-09T13:53:56.096Z,13.53
2018-02-09T13:56:25.093Z,12.80
2018-02-09T13:58:54.096Z,14.07
2018-02-09T14:01:23.166Z,14.67
2018-02-09T14:03:51.364Z,13.57
2018-02-09T14:06:20.368Z,11.93
2018-02-09T14:08:48.595Z,14.03
2018-02-09T14:11:16.916Z,13.63
2018-02-09T14:13:45.893Z,12.30
2018-02-09T14:16:14.896Z,13.83
2018-02-09T14:18:43.896Z,12.73
2018-02-09T14:21:12.901Z,12.80
2018-02-09T14:23:41.241Z,13.80
2018-02-09T14:26:09.452Z,11.57
2018-02-09T14:28:37.690Z,12.00
2018-02-09T14:31:05.897Z,12.73
2018-02-09T14:33:34.177Z,11.33
2018-02-09T14:36:03.180Z,11.50
2018-02-09T14:38:31.393Z,12.53
2018-02-09T14:40:59.604Z,12.60
2018-02-09T14:43:28.609Z,12.97
2018-02-09T14:45:57.613Z,13.03
2018-02-09T14:48:25.855Z,14.27
2018-02-09T14:50:55.568Z,12.60
2018-02-09T14:53:23.886Z,14.47
2018-02-09T14:55:52.148Z,13.30
2018-02-09T14:58:20.436Z,13.20
2018-02-09T15:00:48.641Z,14.07
2018-02-09T15:03:16.848Z,14.67
2018-02-09T15:05:45.096Z,13.80
2018-02-09T15:08:13.428Z,15.37
2018-02-09T15:10:42.424Z,12.67
2018-02-09T15:13:10.704Z,16.27
2018-02-09T15:15:38.937Z,13.30
2018-02-09T15:18:07.158Z,14.90
2018-02-09T15:20:35.432Z,14.00
2018-02-09T15:23:03.702Z,13.90
2018-02-09T15:25:31.901Z,12.90
2018-02-09T15:28:00.157Z,14.30
2018-02-09T15:30:28.392Z,14.33
2018-02-09T15:32:56.600Z,12.80
2018-02-09T15:35:25.605Z,13.67
2018-02-09T15:37:53.849Z,14.33
2018-02-09T15:40:23.564Z,13.13
2018-02-09T15:42:51.808Z,15.07
2018-02-09T15:45:20.049Z,13.60
2018-02-09T15:47:48.254Z,13.57
2018-02-09T15:50:16.592Z,14.50
2018-02-09T15:52:45.588Z,13.30
2018-02-09T15:55:13.825Z,15.07
2018-02-09T15:57:42.086Z,16.33
2018-02-09T16:00:11.045Z,15.10
2018-02-09T16:02:39.364Z,15.00
2018-02-09T16:05:07.613Z,13.43
2018-02-09T16:07:35.865Z,16.50
2018-02-09T16:10:04.113Z,15.70
2018-02-09T16:12:32.335Z,14.67
2018-02-09T16:15:00.545Z,14.23
2018-02-09T16:17:28.768Z,13.60
2018-02-09T16:19:57.048Z,14.73
2018-02-09T16:22:25.319Z,16.67
2018-02-09T16:24:53.597Z,16.50
2018-02-09T16:27:21.805Z,18.47
2018-02-09T16:29:50.015Z,14.50
2018-02-09T16:32:19.761Z,16.27
2018-02-09T16:34:48.045Z,19.00
2018-02-09T16:37:16.281Z,16.50
2018-02-09T16:39:44.588Z,14.77
2018-02-09T16:42:12.801Z,18.57
2018-02-09T16:44:41.044Z,23.17
2018-02-09T16:47:09.287Z,39.87
2018-02-09T16:49:38.329Z,23.67
2018-02-09T16:52:06.579Z,24.70
2018-02-09T16:54:35.596Z,24.57
2018-02-09T16:57:03.808Z,16.73
2018-02-09T16:59:32.052Z,20.20
2018-02-09T17:02:00.281Z,18.03
2018-02-09T17:04:28.901Z,21.60
2018-02-09T17:06:57.112Z,19.27
2018-02-09T17:09:25.445Z,18.07
2018-02-09T17:11:53.685Z,17.80
2018-02-09T17:14:21.928Z,16.57
2018-02-09T17:16:50.180Z,14.97
2018-02-09T17:19:18.415Z,14.90
2018-02-09T17:21:46.645Z,16.20
2018-02-09T17:24:14.876Z,17.40
2018-02-09T17:26:43.084Z,15.27
2018-02-09T17:29:11.352Z,15.47
2018-02-09T17:31:40.349Z,17.03
2018-02-09T17:34:08.592Z,16.37
2018-02-09T17:36:37.572Z,15.87
2018-02-09T17:39:05.893Z,15.30
2018-02-09T17:41:34.134Z,16.87
2018-02-09T17:44:03.876Z,15.03
2018-02-09T17:46:32.871Z,17.47
2018-02-09T17:49:01.857Z,18.97
2018-02-09T17:51:30.860Z,18.70
2018-02-09T17:53:59.956Z,16.50
2018-02-09T17:56:28.237Z,17.10
2018-02-09T17:58:56.465Z,22.53
2018-02-09T18:01:24.784Z,19.60
2018-02-09T18:03:53.768Z,18.23
2018-02-09T18:06:22.814Z,18.83
2018-02-09T18:08:51.029Z,17.63
2018-02-09T18:11:20.045Z,20.07
2018-02-09T18:13:49.020Z,17.37
2018-02-09T18:16:18.040Z,18.37
2018-02-09T18:18:46.310Z,16.37
2018-02-09T18:21:15.317Z,15.53
2018-02-09T18:23:43.571Z,17.20
2018-02-09T18:26:12.587Z,16.80
2018-02-09T18:28:40.826Z,15.10
2018-02-09T18:31:09.078Z,16.27
2018-02-09T18:33:37.324Z,15.17
2018-02-09T18:36:05.557Z,15.57
2018-02-09T18:38:33.779Z,14.17
2018-02-09T18:41:02.050Z,14.43
2018-02-09T18:43:30.288Z,13.23
2018-02-09T18:45:59.309Z,15.70
2018-02-09T18:48:27.572Z,14.50
2018-02-09T18:50:56.710Z,16.23
2018-02-09T18:53:25.884Z,15.60
2018-02-09T18:55:54.111Z,15.87
2018-02-09T18:58:22.384Z,15.40
2018-02-09T19:00:50.772Z,15.77
2018-02-09T19:03:18.986Z,17.40
2018-02-09T19:05:47.247Z,16.13
2018-02-09T19:08:16.240Z,15.70
2018-02-09T19:10:45.262Z,16.70
2018-02-09T19:13:13.495Z,16.03
2018-02-09T19:15:41.741Z,15.87
2018-02-09T19:18:09.951Z,16.73
2018-02-09T19:20:38.211Z,15.63
2018-02-09T19:23:06.442Z,16.07
2018-02-09T19:25:34.689Z,15.90
2018-02-09T19:28:03.672Z,16.17
2018-02-09T19:30:32.697Z,16.37
2018-02-09T19:33:00.921Z,14.67
2018-02-09T19:35:29.251Z,19.60
2018-02-09T19:37:57.473Z,15.77
2018-02-09T19:40:26.661Z,16.20
2018-02-09T19:42:54.910Z,16.67
2018-02-09T19:45:23.302Z,17.47
2018-02-09T19:47:51.619Z,17.43
2018-02-09T19:50:19.854Z,15.00
2018-02-09T19:52:48.096Z,17.40
2018-02-09T19:55:17.217Z,15.93
2018-02-09T19:57:45.469Z,15.33
2018-02-09T20:00:13.724Z,15.07
2018-02-09T20:02:41.937Z,15.53
2018-02-09T20:05:10.204Z,15.63
2018-02-09T20:07:38.469Z,16.30
2018-02-09T20:10:07.481Z,15.97
2018-02-09T20:12:35.806Z,16.17
2018-02-09T20:15:05.634Z,16.30
2018-02-09T20:17:33.823Z,16.87
2018-02-09T20:20:02.105Z,14.97
2018-02-09T20:22:31.127Z,15.27
2018-02-09T20:25:00.112Z,15.27
2018-02-09T20:27:28.411Z,15.20
2018-02-09T20:29:56.674Z,15.50
2018-02-09T20:32:25.676Z,15.63
2018-02-09T20:34:53.924Z,15.50
2018-02-09T20:37:22.995Z,16.43
2018-02-09T20:39:51.239Z,16.37
2018-02-09T20:42:19.454Z,16.57
2018-02-09T20:44:48.461Z,17.50
2018-02-09T20:47:17.504Z,16.07
2018-02-09T20:49:45.737Z,14.80
2018-02-09T20:52:14.785Z,14.83
2018-02-09T20:54:43.055Z,16.37
2018-02-09T20:57:11.279Z,16.13
2018-02-09T20:59:40.292Z,15.67
2018-02-09T21:02:08.538Z,15.40
2018-02-09T21:04:37.528Z,17.43
2018-02-09T21:07:05.781Z,16.00
2018-02-09T21:09:34.032Z,15.17
2018-02-09T21:12:02.276Z,14.53
2018-02-09T21:14:30.509Z,16.03
2018-02-09T21:16:58.817Z,15.93
2018-02-09T21:19:27.109Z,13.53
2018-02-09T21:21:55.389Z,15.47
2018-02-09T21:24:23.617Z,15.40
2018-02-09T21:26:51.840Z,17.80
2018-02-09T21:29:20.105Z,15.60
2018-02-09T21:31:49.082Z,14.80
2018-02-09T21:34:18.088Z,16.80
2018-02-09T21:36:47.097Z,16.47
2018-02-09T21:39:15.363Z,15.77
2018-02-09T21:41:43.715Z,15.17
2018-02-09T21:44:11.912Z,14.50
2018-02-09T21:46:40.916Z,15.03
2018-02-09T21:49:09.128Z,15.67
2018-02-09T21:51:37.364Z,15.60
2018-02-09T21:54:05.578Z,17.00
2018-02-09T21:56:33.822Z,16.73
2018-02-09T21:59:02.265Z,16.10
2018-02-09T22:01:30.497Z,15.27
2018-02-09T22:03:58.818Z,17.77
2018-02-09T22:06:27.143Z,17.03
2018-02-09T22:08:55.404Z,16.93
2018-02-09T22:11:25.092Z,16.40
2018-02-09T22:13:54.093Z,15.97
2018-02-09T22:16:23.101Z,15.47
2018-02-09T22:18:51.308Z,16.90
2018-02-09T22:21:19.552Z,14.30
2018-02-09T22:23:47.760Z,16.30
2018-02-09T22:26:15.974Z,17.40
2018-02-09T22:28:44.276Z,15.57
2018-02-09T22:31:13.273Z,15.70
2018-02-09T22:33:41.513Z,16.33
2018-02-09T22:36:09.748Z,15.70
2018-02-09T22:38:38.002Z,17.23
2018-02-09T22:41:06.289Z,17.07
2018-02-09T22:43:34.561Z,16.83
2018-02-09T22:46:02.800Z,15.90
2018-02-09T22:48:31.780Z,15.10
2018-02-09T22:51:00.104Z,17.80
2018-02-09T22:53:28.353Z,15.80
2018-02-09T22:55:56.661Z,16.97
2018-02-09T22:58:25.004Z,16.90
2018-02-09T23:00:53.204Z,17.57
2018-02-09T23:03:22.309Z,17.60
2018-02-09T23:05:50.580Z,16.23
2018-02-09T23:08:18.796Z,17.43
2018-02-09T23:10:47.031Z,16.77
2018-02-09T23:13:16.024Z,16.67
2018-02-09T23:15:44.300Z,14.83
2018-02-09T23:18:12.509Z,16.30
2018-02-09T23:20:40.753Z,14.20
2018-02-09T23:23:09.753Z,17.50
2018-02-09T23:25:38.004Z,18.40
2018-02-09T23:28:06.404Z,15.77
2018-02-09T23:30:34.620Z,14.83
2018-02-09T23:33:02.852Z,15.30
2018-02-09T23:35:31.072Z,14.70
2018-02-09T23:37:59.308Z,15.30
2018-02-09T23:40:27.580Z,15.07
2018-02-09T23:42:55.825Z,15.77
2018-02-09T23:45:25.545Z,16.23
2018-02-09T23:47:53.848Z,15.13
2018-02-09T23:50:22.196Z,12.90
2018-02-09T23:52:50.403Z,15.80
2018-02-09T23:55:18.676Z,14.40
2018-02-09T23:57:46.885Z,16.30
